createdAt,value
2019-06-01T00:00:54.064Z,16.10
2019-06-01T00:03:22.464Z,16.10
2019-06-01T00:05:50.863Z,16.10
2019-06-01T00:08:19.277Z,16.10
2019-06-01T00:10:47.817Z,16.10
2019-06-01T00:13:16.191Z,16.10
2019-06-01T00:15:44.585Z,16.10
2019-06-01T00:18:13.006Z,16.00
2019-06-01T00:20:42.229Z,16.00
2019-06-01T00:23:10.690Z,16.00
2019-06-01T00:25:40.345Z,16.00
2019-06-01T00:28:08.872Z,16.00
2019-06-01T00:30:37.277Z,16.00
2019-06-01T00:33:05.664Z,15.90
2019-06-01T00:35:34.086Z,15.90
2019-06-01T00:38:02.493Z,15.90
2019-06-01T00:40:30.907Z,15.90
2019-06-01T00:42:59.324Z,15.90
2019-06-01T00:45:27.721Z,15.90
2019-06-01T00:47:56.139Z,15.90
2019-06-01T00:50:24.606Z,15.90
2019-06-01T00:52:53.433Z,15.90
2019-06-01T00:55:22.009Z,15.90
2019-06-01T00:57:51.818Z,15.90
2019-06-01T01:00:20.314Z,15.90
2019-06-01T01:02:50.108Z,15.90
2019-06-01T01:05:18.972Z,15.90
2019-06-01T01:07:48.689Z,15.90
2019-06-01T01:10:17.844Z,15.80
2019-06-01T01:13:05.881Z,15.80
2019-06-01T01:15:34.659Z,15.80
2019-06-01T01:18:03.012Z,15.80
2019-06-01T01:20:31.436Z,15.80
2019-06-01T01:22:59.806Z,15.80
2019-06-01T01:25:28.269Z,15.70
2019-06-01T01:27:57.042Z,15.80
2019-06-01T01:30:25.524Z,15.70
2019-06-01T01:32:54.018Z,15.70
2019-06-01T01:35:22.457Z,15.70
2019-06-01T01:37:51.947Z,15.70
2019-06-01T01:40:20.349Z,15.60
2019-06-01T01:42:48.896Z,15.60
2019-06-01T01:45:17.724Z,15.60
2019-06-01T01:47:46.147Z,15.60
2019-06-01T01:50:14.705Z,15.60
2019-06-01T01:52:43.105Z,15.50
2019-06-01T01:55:11.551Z,15.50
2019-06-01T01:57:40.066Z,15.50
2019-06-01T02:00:10.381Z,15.50
2019-06-01T02:02:38.771Z,15.50
2019-06-01T02:05:07.927Z,15.50
2019-06-01T02:07:36.308Z,15.50
2019-06-01T02:10:08.099Z,15.40
2019-06-01T02:12:36.456Z,15.40
2019-06-01T02:15:07.528Z,15.40
2019-06-01T02:17:35.924Z,15.30
2019-06-01T02:20:05.177Z,15.30
2019-06-01T02:22:33.584Z,15.30
2019-06-01T02:25:02.187Z,15.30
2019-06-01T02:27:30.691Z,15.30
2019-06-01T02:29:59.428Z,15.30
2019-06-01T02:32:27.888Z,15.30
2019-06-01T02:34:58.064Z,15.20
2019-06-01T02:37:26.541Z,15.30
2019-06-01T02:39:56.675Z,15.20
2019-06-01T02:42:25.143Z,15.20
2019-06-01T02:44:54.969Z,15.20
2019-06-01T02:47:23.536Z,15.20
2019-06-01T02:49:52.031Z,15.20
2019-06-01T02:52:20.436Z,15.10
2019-06-01T02:54:48.848Z,15.10
2019-06-01T02:57:17.264Z,15.10
2019-06-01T02:59:45.656Z,15.10
2019-06-01T03:02:15.081Z,15.10
2019-06-01T03:04:43.572Z,15.10
2019-06-01T03:07:11.978Z,15.00
2019-06-01T03:09:40.452Z,15.00
2019-06-01T03:12:13.010Z,15.00
2019-06-01T03:14:41.925Z,15.00
2019-06-01T03:17:12.136Z,15.00
2019-06-01T03:19:40.689Z,14.90
2019-06-01T03:22:09.077Z,14.90
2019-06-01T03:24:37.505Z,14.90
2019-06-01T03:27:06.355Z,14.90
2019-06-01T03:29:36.804Z,14.90
2019-06-01T03:32:24.156Z,14.90
2019-06-01T03:34:35.312Z,14.90
2019-06-01T03:37:04.914Z,14.80
2019-06-01T03:39:33.439Z,14.80
2019-06-01T03:42:03.172Z,14.80
2019-06-01T03:44:31.853Z,14.80
2019-06-01T03:47:01.406Z,14.80
2019-06-01T03:49:30.042Z,14.80
2019-06-01T03:51:58.496Z,14.90
2019-06-01T03:54:27.008Z,14.90
2019-06-01T03:56:55.512Z,14.90
2019-06-01T03:59:23.897Z,14.90
2019-06-01T04:01:52.338Z,14.90
2019-06-01T04:04:20.780Z,14.90
2019-06-01T04:06:49.203Z,14.90
2019-06-01T04:09:17.586Z,14.90
2019-06-01T04:11:45.956Z,14.90
2019-06-01T04:14:14.379Z,15.00
2019-06-01T04:16:43.229Z,15.00
2019-06-01T04:19:12.207Z,15.10
2019-06-01T04:21:40.671Z,15.20
2019-06-01T04:24:10.230Z,15.30
2019-06-01T04:26:38.748Z,15.30
2019-06-01T04:29:08.238Z,15.30
2019-06-01T04:31:36.765Z,15.30
2019-06-01T04:34:05.172Z,15.30
2019-06-01T04:36:33.594Z,15.30
2019-06-01T04:39:03.233Z,15.30
2019-06-01T04:41:31.718Z,15.30
2019-06-01T04:44:00.187Z,15.30
2019-06-01T04:46:28.565Z,15.30
2019-06-01T04:48:56.968Z,15.30
2019-06-01T04:51:25.380Z,15.40
2019-06-01T04:53:54.133Z,15.40
2019-06-01T04:56:22.525Z,15.50
2019-06-01T04:58:51.002Z,15.60
2019-06-01T05:01:19.370Z,15.70
2019-06-01T05:03:47.804Z,15.70
2019-06-01T05:06:16.181Z,15.80
2019-06-01T05:08:44.587Z,15.90
2019-06-01T05:11:13.570Z,15.90
2019-06-01T05:13:42.001Z,16.00
2019-06-01T05:16:10.416Z,16.00
2019-06-01T05:18:38.836Z,16.00
2019-06-01T05:21:08.431Z,16.10
2019-06-01T05:23:36.835Z,16.00
2019-06-01T05:26:05.282Z,16.10
2019-06-01T05:28:33.702Z,16.10
2019-06-01T05:31:02.177Z,16.20
2019-06-01T05:33:37.349Z,16.20
2019-06-01T05:36:00.740Z,16.30
2019-06-01T05:38:29.152Z,16.40
2019-06-01T05:40:57.568Z,16.40
2019-06-01T05:43:25.966Z,16.50
2019-06-01T05:45:54.379Z,16.60
2019-06-01T05:48:25.779Z,16.70
2019-06-01T05:50:52.911Z,16.70
2019-06-01T05:53:21.407Z,16.80
2019-06-01T05:55:49.803Z,16.90
2019-06-01T05:58:19.676Z,16.90
2019-06-01T06:00:48.224Z,17.10
2019-06-01T06:03:21.735Z,17.20
2019-06-01T06:05:46.728Z,17.30
2019-06-01T06:08:15.969Z,17.50
2019-06-01T06:10:44.654Z,17.60
2019-06-01T06:13:13.355Z,17.70
2019-06-01T06:15:41.860Z,17.70
2019-06-01T06:18:11.538Z,17.80
2019-06-01T06:20:40.148Z,17.80
2019-06-01T06:23:08.581Z,17.80
2019-06-01T06:25:39.705Z,17.80
2019-06-01T06:28:07.014Z,17.80
2019-06-01T06:30:35.389Z,17.80
2019-06-01T06:33:03.791Z,17.90
2019-06-01T06:35:32.187Z,18.10
2019-06-01T06:38:00.578Z,18.20
2019-06-01T06:40:29.008Z,18.40
2019-06-01T06:42:57.493Z,18.40
2019-06-01T06:45:25.914Z,18.40
2019-06-01T06:47:54.292Z,18.30
2019-06-01T06:50:23.550Z,18.10
2019-06-01T06:52:51.977Z,18.10
2019-06-01T06:55:20.404Z,18.10
2019-06-01T06:57:48.789Z,18.20
2019-06-01T07:00:18.427Z,18.20
2019-06-01T07:02:47.014Z,18.30
2019-06-01T07:05:15.406Z,18.40
2019-06-01T07:07:43.828Z,18.40
2019-06-01T07:10:15.440Z,18.50
2019-06-01T07:12:43.861Z,18.50
2019-06-01T07:15:12.249Z,18.50
2019-06-01T07:17:40.651Z,18.60
2019-06-01T07:20:09.100Z,18.60
2019-06-01T07:22:37.506Z,18.70
2019-06-01T07:25:07.033Z,18.80
2019-06-01T07:27:35.458Z,18.80
2019-06-01T07:30:04.989Z,18.90
2019-06-01T07:32:33.352Z,18.90
2019-06-01T07:35:01.944Z,18.90
2019-06-01T07:37:30.353Z,19.00
2019-06-01T07:39:58.865Z,19.00
2019-06-01T07:42:28.171Z,19.10
2019-06-01T07:44:57.295Z,19.20
2019-06-01T07:47:27.210Z,19.30
2019-06-01T07:49:55.835Z,19.30
2019-06-01T07:52:24.297Z,19.40
2019-06-01T07:54:52.677Z,19.40
2019-06-01T07:57:21.601Z,19.50
2019-06-01T07:59:50.227Z,19.60
2019-06-01T08:02:18.667Z,19.60
2019-06-01T08:04:53.296Z,19.70
2019-06-01T08:07:17.182Z,19.70
2019-06-01T08:09:45.564Z,19.70
2019-06-01T08:12:13.973Z,19.80
2019-06-01T08:14:42.352Z,19.90
2019-06-01T08:17:10.761Z,19.90
2019-06-01T08:19:39.179Z,20.00
2019-06-01T08:22:07.636Z,20.00
2019-06-01T08:24:35.997Z,20.00
2019-06-01T08:27:04.376Z,20.10
2019-06-01T08:29:32.907Z,20.20
2019-06-01T08:32:01.341Z,20.30
2019-06-01T08:34:30.972Z,20.30
2019-06-01T08:36:59.612Z,20.40
2019-06-01T08:39:31.547Z,20.50
2019-06-01T08:42:04.993Z,20.50
2019-06-01T08:44:35.663Z,20.60
2019-06-01T08:47:21.046Z,20.70
2019-06-01T08:49:49.450Z,20.70
2019-06-01T08:52:17.906Z,20.80
2019-06-01T08:54:46.487Z,20.80
2019-06-01T08:57:14.892Z,20.90
2019-06-01T08:59:45.284Z,20.90
2019-06-01T09:02:13.749Z,21.00
2019-06-01T09:04:42.218Z,21.10
2019-06-01T09:07:10.613Z,21.10
2019-06-01T09:09:44.948Z,21.10
2019-06-01T09:12:13.365Z,21.30
2019-06-01T09:14:46.693Z,21.30
2019-06-01T09:17:18.469Z,21.40
2019-06-01T09:19:45.184Z,21.40
2019-06-01T09:22:13.562Z,21.50
2019-06-01T09:24:42.039Z,21.40
2019-06-01T09:27:10.419Z,21.50
2019-06-01T09:29:38.846Z,21.70
2019-06-01T09:32:10.773Z,21.80
2019-06-01T09:34:37.478Z,21.80
2019-06-01T09:37:05.848Z,21.80
2019-06-01T09:39:35.068Z,21.80
2019-06-01T09:42:04.825Z,21.90
2019-06-01T09:44:33.582Z,21.90
2019-06-01T09:47:02.086Z,22.00
2019-06-01T09:49:33.552Z,22.00
2019-06-01T09:52:00.535Z,22.00
2019-06-01T09:54:29.393Z,22.10
2019-06-01T09:57:02.147Z,22.10
2019-06-01T09:59:31.612Z,22.20
2019-06-01T10:02:00.365Z,22.20
2019-06-01T10:04:28.768Z,22.30
2019-06-01T10:06:57.136Z,22.30
2019-06-01T10:09:25.567Z,22.40
2019-06-01T10:11:54.127Z,22.50
2019-06-01T10:14:22.643Z,22.60
2019-06-01T10:16:51.035Z,22.70
2019-06-01T10:19:19.487Z,22.80
2019-06-01T10:21:47.856Z,22.90
2019-06-01T10:24:16.272Z,23.00
2019-06-01T10:26:44.687Z,23.10
2019-06-01T10:29:13.078Z,23.10
2019-06-01T10:31:45.813Z,23.20
2019-06-01T10:34:14.193Z,23.20
2019-06-01T10:36:42.625Z,23.30
2019-06-01T10:39:11.046Z,23.20
2019-06-01T10:41:39.704Z,23.20
2019-06-01T10:44:08.121Z,23.30
2019-06-01T10:46:37.594Z,23.30
2019-06-01T10:49:06.385Z,23.20
2019-06-01T10:51:35.956Z,23.20
2019-06-01T10:54:04.704Z,23.30
2019-06-01T10:56:34.315Z,23.30
2019-06-01T10:59:02.761Z,23.30
2019-06-01T11:01:33.841Z,23.30
2019-06-01T11:04:01.203Z,23.40
2019-06-01T11:06:37.695Z,23.50
2019-06-01T11:08:59.680Z,23.60
2019-06-01T11:11:28.064Z,23.80
2019-06-01T11:13:56.467Z,23.90
2019-06-01T11:16:24.856Z,24.00
2019-06-01T11:18:53.247Z,24.10
2019-06-01T11:21:21.673Z,24.20
2019-06-01T11:23:50.069Z,24.10
2019-06-01T11:26:19.669Z,24.20
2019-06-01T11:28:48.081Z,24.20
2019-06-01T11:31:16.514Z,24.20
2019-06-01T11:33:49.361Z,24.20
2019-06-01T11:36:17.842Z,24.20
2019-06-01T11:38:46.224Z,24.30
2019-06-01T11:41:18.353Z,24.30
2019-06-01T11:43:46.074Z,24.40
2019-06-01T11:46:14.784Z,24.50
2019-06-01T11:48:43.506Z,24.60
2019-06-01T11:51:11.867Z,24.70
2019-06-01T11:53:41.508Z,24.80
2019-06-01T11:56:10.059Z,24.90
2019-06-01T11:58:39.246Z,25.00
2019-06-01T12:01:07.672Z,25.20
2019-06-01T12:03:36.060Z,25.30
2019-06-01T12:06:04.795Z,25.40
2019-06-01T12:08:34.247Z,25.40
2019-06-01T12:11:02.888Z,25.40
2019-06-01T12:13:31.432Z,25.50
2019-06-01T12:15:59.764Z,25.70
2019-06-01T12:18:28.171Z,25.70
2019-06-01T12:20:56.553Z,25.70
2019-06-01T12:23:24.979Z,25.60
2019-06-01T12:25:53.428Z,25.70
2019-06-01T12:28:21.828Z,25.70
2019-06-01T12:30:50.249Z,25.70
2019-06-01T12:33:18.644Z,25.90
2019-06-01T12:35:47.964Z,26.10
2019-06-01T12:38:16.637Z,26.00
2019-06-01T12:40:45.344Z,26.00
2019-06-01T12:43:13.732Z,26.00
2019-06-01T12:45:42.112Z,26.10
2019-06-01T12:48:10.526Z,26.30
2019-06-01T12:50:39.886Z,26.50
2019-06-01T12:53:08.372Z,26.80
2019-06-01T12:55:36.775Z,26.90
2019-06-01T12:58:05.183Z,26.90
2019-06-01T13:00:33.643Z,26.80
2019-06-01T13:03:07.550Z,26.80
2019-06-01T13:05:32.102Z,27.00
2019-06-01T13:08:02.725Z,27.20
2019-06-01T13:10:30.527Z,27.30
2019-06-01T13:12:58.931Z,27.10
2019-06-01T13:15:27.313Z,27.10
2019-06-01T13:17:55.721Z,27.30
2019-06-01T13:20:24.099Z,27.50
2019-06-01T13:22:52.552Z,27.50
2019-06-01T13:25:20.976Z,27.70
2019-06-01T13:27:50.518Z,27.80
2019-06-01T13:30:19.175Z,27.80
2019-06-01T13:32:48.601Z,27.80
2019-06-01T13:35:17.173Z,28.10
2019-06-01T13:37:46.602Z,28.20
2019-06-01T13:40:16.789Z,28.30
2019-06-01T13:42:45.224Z,28.40
2019-06-01T13:45:13.608Z,28.50
2019-06-01T13:47:43.288Z,28.60
2019-06-01T13:50:11.876Z,28.70
2019-06-01T13:52:40.290Z,28.90
2019-06-01T13:55:08.647Z,29.10
2019-06-01T13:57:39.468Z,29.30
2019-06-01T14:00:07.332Z,29.30
2019-06-01T14:02:35.735Z,29.50
2019-06-01T14:05:06.096Z,29.50
2019-06-01T14:07:34.458Z,29.60
2019-06-01T14:10:04.611Z,29.50
2019-06-01T14:12:32.992Z,29.50
2019-06-01T14:15:01.408Z,29.40
2019-06-01T14:17:29.782Z,29.20
2019-06-01T14:19:58.188Z,29.20
2019-06-01T14:22:26.567Z,29.20
2019-06-01T14:25:11.840Z,29.10
2019-06-01T14:27:25.007Z,29.10
2019-06-01T14:29:54.428Z,29.10
2019-06-01T14:32:22.908Z,29.30
2019-06-01T14:34:52.049Z,29.00
2019-06-01T14:37:21.441Z,29.00
2019-06-01T14:39:50.830Z,28.90
2019-06-01T14:42:38.783Z,29.00
2019-06-01T14:45:07.657Z,29.10
2019-06-01T14:47:36.022Z,29.20
2019-06-01T14:50:08.960Z,29.20
2019-06-01T14:52:37.360Z,29.30
2019-06-01T14:55:06.444Z,29.30
2019-06-01T14:57:34.898Z,29.30
2019-06-01T15:00:04.054Z,29.00
2019-06-01T15:02:32.450Z,28.80
2019-06-01T15:05:00.862Z,28.90
2019-06-01T15:07:29.244Z,28.70
2019-06-01T15:09:58.445Z,28.80
2019-06-01T15:12:26.821Z,28.80
2019-06-01T15:14:55.515Z,28.90
2019-06-01T15:17:23.933Z,28.80
2019-06-01T15:19:52.411Z,28.80
2019-06-01T15:22:20.812Z,28.80
2019-06-01T15:24:50.355Z,28.70
2019-06-01T15:27:18.930Z,28.60
2019-06-01T15:29:47.334Z,28.50
2019-06-01T15:32:15.902Z,28.40
2019-06-01T15:34:44.288Z,28.30
2019-06-01T15:37:12.697Z,28.20
2019-06-01T15:39:41.082Z,28.00
2019-06-01T15:42:09.487Z,28.00
2019-06-01T15:44:37.864Z,28.10
2019-06-01T15:47:06.349Z,28.00
2019-06-01T15:49:34.754Z,27.70
2019-06-01T15:52:03.156Z,27.40
2019-06-01T15:54:31.555Z,27.30
2019-06-01T15:57:00.925Z,27.30
2019-06-01T15:59:29.397Z,27.50
2019-06-01T16:01:59.190Z,27.60
2019-06-01T16:04:27.783Z,27.60
2019-06-01T16:06:57.158Z,27.40
2019-06-01T16:09:41.525Z,27.30
2019-06-01T16:11:55.686Z,27.10
2019-06-01T16:14:24.106Z,27.10
2019-06-01T16:16:53.783Z,27.00
2019-06-01T16:19:22.220Z,27.00
2019-06-01T16:21:50.600Z,27.10
2019-06-01T16:24:26.238Z,27.10
2019-06-01T16:26:54.675Z,27.20
2019-06-01T16:29:23.142Z,27.10
2019-06-01T16:31:51.542Z,27.10
2019-06-01T16:34:19.918Z,27.00
2019-06-01T16:36:48.320Z,26.90
2019-06-01T16:39:16.726Z,26.80
2019-06-01T16:41:45.138Z,26.50
2019-06-01T16:44:13.505Z,26.20
2019-06-01T16:46:41.936Z,26.00
2019-06-01T16:49:10.315Z,25.90
2019-06-01T16:51:52.003Z,25.80
2019-06-01T16:54:20.369Z,25.70
2019-06-01T16:56:49.137Z,25.60
2019-06-01T16:59:19.007Z,25.50
2019-06-01T17:01:47.407Z,25.50
2019-06-01T17:04:15.814Z,25.40
2019-06-01T17:06:44.192Z,25.30
2019-06-01T17:09:12.685Z,25.30
2019-06-01T17:11:41.069Z,25.20
2019-06-01T17:14:09.483Z,25.30
2019-06-01T17:16:37.891Z,25.30
2019-06-01T17:19:07.248Z,25.30
2019-06-01T17:21:35.703Z,25.30
2019-06-01T17:24:04.149Z,25.20
2019-06-01T17:26:32.550Z,25.20
2019-06-01T17:29:08.221Z,25.20
2019-06-01T17:31:53.532Z,25.10
2019-06-01T17:34:08.711Z,25.10
2019-06-01T17:36:37.127Z,25.00
2019-06-01T17:39:08.070Z,24.80
2019-06-01T17:41:36.576Z,24.80
2019-06-01T17:44:05.265Z,24.70
2019-06-01T17:46:33.749Z,24.70
2019-06-01T17:49:02.154Z,24.60
2019-06-01T17:51:31.971Z,24.60
2019-06-01T17:54:02.415Z,24.50
2019-06-01T17:56:30.699Z,24.40
2019-06-01T17:58:59.104Z,24.40
2019-06-01T18:01:27.503Z,24.30
2019-06-01T18:03:55.899Z,24.30
2019-06-01T18:06:24.268Z,24.30
2019-06-01T18:08:52.784Z,24.30
2019-06-01T18:11:21.184Z,24.30
2019-06-01T18:13:49.563Z,24.30
2019-06-01T18:16:17.954Z,24.20
2019-06-01T18:18:46.344Z,24.20
2019-06-01T18:21:14.756Z,24.20
2019-06-01T18:23:43.131Z,24.20
2019-06-01T18:26:11.559Z,24.20
2019-06-01T18:28:39.931Z,24.10
2019-06-01T18:31:08.762Z,24.00
2019-06-01T18:33:37.251Z,24.00
2019-06-01T18:36:05.658Z,23.90
2019-06-01T18:38:34.034Z,23.90
2019-06-01T18:41:12.845Z,23.80
2019-06-01T18:43:32.461Z,23.70
2019-06-01T18:46:00.845Z,23.70
2019-06-01T18:48:29.254Z,23.60
2019-06-01T18:50:57.620Z,23.60
2019-06-01T18:53:26.018Z,23.40
2019-06-01T18:55:54.474Z,23.30
2019-06-01T18:58:22.859Z,23.30
2019-06-01T19:00:51.249Z,23.20
2019-06-01T19:03:19.656Z,23.10
2019-06-01T19:05:48.064Z,23.10
2019-06-01T19:08:16.669Z,23.10
2019-06-01T19:11:05.742Z,23.00
2019-06-01T19:13:34.299Z,23.00
2019-06-01T19:16:02.691Z,22.90
2019-06-01T19:18:31.092Z,22.80
2019-06-01T19:20:59.495Z,22.80
2019-06-01T19:23:27.877Z,22.70
2019-06-01T19:25:56.299Z,22.70
2019-06-01T19:28:24.675Z,22.70
2019-06-01T19:30:53.071Z,22.60
2019-06-01T19:33:21.497Z,22.60
2019-06-01T19:35:49.869Z,22.60
2019-06-01T19:38:18.608Z,22.50
2019-06-01T19:40:47.025Z,22.50
2019-06-01T19:43:15.761Z,22.40
2019-06-01T19:45:44.219Z,22.40
2019-06-01T19:48:12.700Z,22.40
2019-06-01T19:50:41.417Z,22.30
2019-06-01T19:53:10.582Z,22.30
2019-06-01T19:55:39.160Z,22.30
2019-06-01T19:58:07.545Z,22.20
2019-06-01T20:00:35.954Z,22.20
2019-06-01T20:03:04.515Z,22.20
2019-06-01T20:05:32.927Z,22.10
2019-06-01T20:08:01.315Z,22.10
2019-06-01T20:10:29.718Z,22.00
2019-06-01T20:12:58.111Z,22.00
2019-06-01T20:15:26.594Z,21.90
2019-06-01T20:17:55.122Z,21.90
2019-06-01T20:20:23.519Z,21.80
2019-06-01T20:22:51.933Z,21.80
2019-06-01T20:25:21.420Z,21.80
2019-06-01T20:27:50.227Z,21.80
2019-06-01T20:30:19.796Z,21.70
2019-06-01T20:32:48.319Z,21.70
2019-06-01T20:35:17.918Z,21.60
2019-06-01T20:37:46.386Z,21.60
2019-06-01T20:40:16.130Z,21.50
2019-06-01T20:42:44.750Z,21.50
2019-06-01T20:45:14.439Z,21.50
2019-06-01T20:47:42.943Z,21.40
2019-06-01T20:50:12.418Z,21.40
2019-06-01T20:52:42.637Z,21.40
2019-06-01T20:55:11.092Z,21.30
2019-06-01T20:57:39.515Z,21.20
2019-06-01T21:00:08.061Z,21.20
2019-06-01T21:02:36.540Z,21.20
2019-06-01T21:05:07.715Z,21.20
2019-06-01T21:07:36.121Z,21.10
2019-06-01T21:10:07.758Z,21.10
2019-06-01T21:12:44.968Z,21.10
2019-06-01T21:15:07.404Z,21.10
2019-06-01T21:17:35.849Z,21.00
2019-06-01T21:20:08.800Z,21.00
2019-06-01T21:22:37.626Z,21.00
2019-06-01T21:25:06.536Z,21.00
2019-06-01T21:27:34.898Z,21.00
2019-06-01T21:30:06.991Z,20.90
2019-06-01T21:32:35.376Z,20.90
2019-06-01T21:35:04.379Z,20.80
2019-06-01T21:37:32.793Z,20.80
2019-06-01T21:40:01.168Z,20.80
2019-06-01T21:42:29.568Z,20.80
2019-06-01T21:45:19.489Z,20.80
2019-06-01T21:47:47.993Z,20.70
2019-06-01T21:50:16.922Z,20.60
2019-06-01T21:52:46.868Z,20.60
2019-06-01T21:55:16.035Z,20.60
2019-06-01T21:57:44.552Z,20.60
2019-06-01T22:00:18.563Z,20.60
2019-06-01T22:02:47.134Z,20.60
2019-06-01T22:05:16.687Z,20.60
2019-06-01T22:07:45.253Z,20.60
2019-06-01T22:10:13.672Z,20.60
2019-06-01T22:12:42.074Z,20.60
2019-06-01T22:15:10.465Z,20.60
2019-06-01T22:17:38.889Z,20.60
2019-06-01T22:20:07.257Z,20.60
2019-06-01T22:22:35.675Z,20.60
2019-06-01T22:25:05.516Z,20.60
2019-06-01T22:27:33.899Z,20.50
2019-06-01T22:30:02.333Z,20.50
2019-06-01T22:32:31.768Z,20.50
2019-06-01T22:35:02.375Z,20.60
2019-06-01T22:37:32.278Z,20.60
2019-06-01T22:40:00.783Z,20.50
2019-06-01T22:42:29.243Z,20.50
2019-06-01T22:44:57.655Z,20.40
2019-06-01T22:47:26.646Z,20.40
2019-06-01T22:49:55.193Z,20.40
2019-06-01T22:52:24.879Z,20.30
2019-06-01T22:54:53.492Z,20.30
2019-06-01T22:57:22.400Z,20.30
2019-06-01T22:59:50.890Z,20.30
2019-06-01T23:02:19.287Z,20.20
2019-06-01T23:04:47.661Z,20.20
2019-06-01T23:07:16.054Z,20.30
2019-06-01T23:09:44.460Z,20.20
2019-06-01T23:12:12.876Z,20.20
2019-06-01T23:14:41.266Z,20.20
2019-06-01T23:17:09.849Z,20.20
2019-06-01T23:19:40.030Z,20.20
2019-06-01T23:22:08.442Z,20.20
2019-06-01T23:24:37.667Z,20.20
2019-06-01T23:27:06.065Z,20.10
2019-06-01T23:29:34.481Z,20.10
2019-06-01T23:32:02.863Z,20.10
2019-06-01T23:34:31.280Z,20.00
2019-06-01T23:36:59.704Z,20.00
2019-06-01T23:39:28.759Z,20.00
2019-06-01T23:41:57.332Z,20.00
2019-06-01T23:44:29.282Z,20.00
2019-06-01T23:46:55.785Z,20.00
2019-06-01T23:49:25.099Z,19.90
2019-06-01T23:51:53.589Z,19.90
2019-06-01T23:54:23.611Z,19.90
2019-06-01T23:56:52.000Z,19.80
2019-06-01T23:59:20.394Z,19.80
